Bentley, MI (48613)

5:45 AM EDT on July 23, 2016 (GMT -0400)
Pinconning farm country, (Pintucky Hawg Farm) | | Change Station

Elev 623 ft 43.82 °N, 84.03 °W | Updated 12 minutes ago

Clear
Clear
64.9 °F
Feels Like 64.9 °F
N
0.0
Wind Variable Wind from ESE

Today
High -- | Low -- °F
--% Chance of Precip.
Yesterday
High -- | Low -- °F
Precip. -- in
Pressure 29.97 in
Visibility 10.0 miles
Clouds Clear
Dew Point 65 °F
Humidity 99%
Rainfall 0.00 in
Snow Depth Not available.
6:15 AM 9:09 PM
Waning Gibbous, 86% visible
METAR KIKW 230933Z AUTO 00000KT 10SM CLR 17/17 A2997 RMK AO2 T01720170
Pressure 29.97 in
Visibility 10.0 miles
Clouds Clear
Dew Point 65 °F
Humidity 99%
Rainfall 0.00 in
Snow Depth Not available.
6:15 AM 9:09 PM
Waning Gibbous, 86% visible
METAR KIKW 230933Z AUTO 00000KT 10SM CLR 17/17 A2997 RMK AO2 T01720170

10-Day Weather Forecast

Almanac

Astronomy

Jul. 23, 2016 Rise Set
Actual Time
Civil Twilight
Nautical Twilight
Astronomical Twilight
Moon
Length of Visible Light
Length of Day
Tomorrow will be .
, % of the Moon is Illuminated

Today's Extremes

State Highs State Lows

Community

WunderPhotos

Upload Photos

1,926,790 photos uploaded!

WunderBlog® & News

Nearby

Air Quality

  Air Quality AQ Index Pollutant
Not available.

Snow Depth

Station Depth Elevation

Earthquake Activity

City Distance Mag. Time & Date
Minimum magnitude displayed is 2.5.

Coastal Water Temperatures

Place Temperature

Stations

Nearby Weather Stations

Station Location Temp. Windchill Dew Point Humidity Wind Precip. Elev Updated Type
                   

Watches & Warnings

There are currently no watches in effect.